Aérodrome :
LOGIN :

S'inscrire | Disclaimer

   EN    FR    IT 

 










Légende :    VFR   VFR Marginal   IFR   IFR Intensif   IFR Très Intensif
Visi : 
Plafond : 
>= 8 km
>= 3000ft
5 à 8 km
1000 à 3000 ft
1500m à 5 km
500 à 1000 ft
800 à 1500m
200 à 500 ft
< 800m
< 200 ft
Symboles :   Orages  Brouillard  Fortes neiges  Fortes précipitations  Vent > 20 kt
SIGMETs :   Divers  Orages  Givrage  Turbulence  Onde Orograph.  Cendres Volcan.






- Altitude de l'aérodrome : 636 ft


LPBJ - Beja Air Base

DERNIER METAR :
  • 161800Z 33006KT 9999 FEW025 16/11 Q1027

METARs EXPIRÉS :
  • 161700Z 32007KT 290V350 9999 FEW025 18/11 Q1027
  • 161600Z 30007KT 9999 FEW025 18/10 Q1027

TAF TAF LPBJ
Valide du 16 à 18h jusqu'au 17 à 18h UTC


161707Z 1618/1718 32006KT CAVOK
BECMG 1623/1701 3000 BCFG SCT002
BECMG 1701/1704 0200 FG BKN002
BECMG 1709/1711 8000 BCFG BKN005
BECMG 1711/1713 35010KT 9999 NSW BKN020
BECMG 1713/1715 FEW025



MET'MAP, la Météo Aéronautique d'un coup d'oeil ! - Copyright ORBIFLY Décembre 2007 - Disclaimer

ORBIFLY MET'MAP TEAM :

Programmation & Développement : Alexandra Zaïnal
Sur une idée originale de : Baudouin d'Aumeries
Assistance à la programmation : Marc-Olivier Méhu
Soutien technique & logistique : Manuel Goepfert

Contact : metmap@orbifly.com




SOURCES & CREDITS :

   NOAA